Impacts METAR Board
IDs:

KCVG - Cincinnati Intl, KY, US

Updated at: 2100 UTC 06 Dec 2019
Potential Impact None Slight Moderate High
Time 06/09Z 06/10Z 06/11Z 06/12Z 06/13Z 06/14Z 06/15Z 06/16Z 06/17Z 06/18Z 06/19Z 06/20Z 06/21Z
Temp44 45 46 47 47 46 45 46 47 48 48 48 46
Dewpt30 30 30 32 35 39 41 41 43 44 44 44 39
Altim30.03 30.02 30.03 30.05 30.06 30.07 30.11 30.12 30.11 30.11 30.11 30.11 30.16
VIS10 10 10 10 10 10 6 10 8 10 10 10 7
CIG110 120 100 80 75 60 60 55 55 27 28 32 21
CoverOVCOVCOVCOVCOVCOVCOVCOVCOVCOVCOVCOVCOVC
FltCatVFRVFRVFRVFRVFRVFRVFRVFRVFRMVFRMVFRVFRMVFR
WX---------RA-RA-RA BR-RA-RA--------
WDir200210210210230230230220220220250290350
WSpd7 7 7 12 10 9 7 7 4 4 3 4 12
WGst-- -- -- -- -- -- -- -- -- -- -- -- --
Raw hourly METARs
KCVG 060852Z 20007KT 10SM OVC110 07/M01 A3003 RMK AO2 SLP169 T00671011 56006
KCVG 060952Z 21007KT 10SM OVC120 07/M01 A3002 RMK AO2 SLP168 T00721011
KCVG 061052Z 21007KT 10SM BKN100 OVC150 08/M01 A3003 RMK AO2 SLP170 T00781011
KCVG 061152Z 21012KT 10SM FEW060 OVC080 08/00 A3005 RMK AO2 RAB30E48 SLP175 P0000 60000 T00830000 10083 20044 53005
KCVG 061252Z 23010KT 10SM -RA SCT055 OVC075 08/02 A3006 RMK AO2 RAB20 SLP180 P0000 T00830017
KCVG 061352Z 23009KT 10SM -RA SCT055 BKN060 OVC075 08/04 A3007 RMK AO2 SLP185 P0001 T00780039
KCVG 061452Z 23007KT 6SM -RA BR SCT055 OVC060 07/05 A3011 RMK AO2 SLP197 P0001 60002 T00720050 53020
KCVG 061552Z 22007KT 10SM -RA BKN055 OVC060 08/05 A3012 RMK AO2 SLP200 P0002 T00780050
KCVG 061652Z 22004KT 8SM -RA BKN055 OVC065 08/06 A3011 RMK AO2 SLP198 P0003 T00830061
KCVG 061800Z 22004KT 10SM BKN027 BKN034 OVC046 09/07 A3011 RMK AO2 T00890067
KCVG 061852Z 25003KT 10SM FEW026 BKN028 OVC031 09/07 A3011 RMK AO2 SLP195 T00890067
KCVG 061952Z 29004KT 10SM FEW020 FEW025 OVC032 09/07 A3011 RMK AO2 SLP197 T00890067
KCVG 062052Z 35012KT 7SM BKN021 OVC024 08/04 A3016 RMK AO2 SLP213 T00780039 53015 $



Page loaded:  21:18 UTC  |   01:18 PM Pacific  |   02:18 PM Mountain  |   03:18 PM Central  |   04:18 PM Eastern

 

ADVISORIES

FORECASTS

FORECASTS

OBSERVATIONS

USER TOOLS

ABOUT US